createdAt,value
2022-12-05T00:03:28.527Z,1.87
2022-12-05T00:08:32.111Z,1.57
2022-12-05T00:13:37.024Z,1.30
2022-12-05T00:18:40.775Z,1.87
2022-12-05T00:23:44.420Z,1.50
2022-12-05T00:28:49.420Z,1.43
2022-12-05T00:33:53.719Z,1.80
2022-12-05T00:38:59.796Z,1.70
2022-12-05T00:44:06.161Z,1.23
2022-12-05T00:49:09.925Z,1.93
2022-12-05T00:54:15.342Z,1.70
2022-12-05T00:59:21.228Z,1.70
2022-12-05T01:04:26.513Z,1.50
2022-12-05T01:09:30.105Z,1.70
2022-12-05T01:14:35.103Z,1.70
2022-12-05T01:19:38.750Z,1.40
2022-12-05T01:24:42.286Z,1.70
2022-12-05T01:29:47.162Z,2.03
2022-12-05T01:34:50.750Z,1.50
2022-12-05T01:39:54.378Z,1.70
2022-12-05T01:45:06.433Z,1.73
2022-12-05T01:50:11.115Z,1.70
2022-12-05T01:55:17.611Z,1.70
2022-12-05T02:00:23.063Z,1.30
2022-12-05T02:05:30.673Z,1.70
2022-12-05T02:10:38.482Z,1.70
2022-12-05T02:15:49.997Z,1.40
2022-12-05T02:21:25.911Z,1.70
2022-12-05T02:26:57.349Z,1.67
2022-12-05T02:32:06.872Z,1.43
2022-12-05T02:37:15.923Z,1.50
2022-12-05T02:42:26.186Z,1.83
2022-12-05T02:47:34.670Z,1.70
2022-12-05T02:52:38.728Z,1.63
2022-12-05T02:57:47.188Z,1.53
2022-12-05T03:02:55.541Z,1.60
2022-12-05T03:08:02.239Z,1.50
2022-12-05T03:13:11.251Z,1.60
2022-12-05T03:18:20.507Z,1.43
2022-12-05T03:23:27.275Z,1.33
2022-12-05T03:28:37.372Z,1.30
2022-12-05T03:33:46.147Z,1.23
2022-12-05T03:38:56.057Z,1.40
2022-12-05T03:44:05.923Z,1.30
2022-12-05T03:49:18.762Z,1.43
2022-12-05T03:54:26.191Z,1.40
2022-12-05T03:59:35.820Z,1.17
2022-12-05T04:04:48.249Z,1.13
2022-12-05T04:09:58.746Z,1.43
2022-12-05T04:15:07.374Z,1.50
2022-12-05T04:20:34.193Z,1.20
2022-12-05T04:25:49.619Z,2.00
2022-12-05T04:31:01.385Z,1.70
2022-12-05T04:36:13.331Z,1.43
2022-12-05T04:41:22.019Z,1.90
2022-12-05T04:46:26.131Z,1.93
2022-12-05T04:51:35.305Z,1.73
2022-12-05T04:56:39.493Z,1.53
2022-12-05T05:01:47.747Z,1.60
2022-12-05T05:06:52.840Z,1.20
2022-12-05T05:11:56.380Z,1.17
2022-12-05T05:16:59.983Z,0.93
2022-12-05T05:22:05.000Z,1.40
2022-12-05T05:27:08.600Z,1.03
2022-12-05T05:32:12.232Z,1.17
2022-12-05T05:37:17.095Z,1.23
2022-12-05T05:42:20.639Z,0.97
2022-12-05T05:47:24.251Z,1.07
2022-12-05T05:52:29.310Z,0.80
2022-12-05T05:57:33.207Z,0.80
2022-12-05T06:02:37.642Z,0.90
2022-12-05T06:07:42.717Z,0.73
2022-12-05T06:12:46.496Z,0.80
2022-12-05T06:17:50.013Z,0.90
2022-12-05T06:22:54.989Z,1.20
2022-12-05T06:27:58.560Z,1.00
2022-12-05T06:33:02.089Z,1.00
2022-12-05T06:38:07.495Z,1.13
2022-12-05T06:43:11.415Z,1.00
2022-12-05T06:48:14.988Z,0.83
2022-12-05T06:53:20.017Z,0.90
2022-12-05T06:58:23.661Z,0.87
2022-12-05T07:03:27.183Z,1.30
2022-12-05T07:08:32.229Z,1.07
2022-12-05T07:13:35.992Z,1.10
2022-12-05T07:18:39.586Z,1.77
2022-12-05T07:23:46.077Z,1.30
2022-12-05T07:28:50.830Z,1.30
2022-12-05T07:33:55.076Z,1.57
2022-12-05T07:39:00.399Z,1.27
2022-12-05T07:44:03.984Z,1.37
2022-12-05T07:49:08.597Z,1.50
2022-12-05T07:54:13.605Z,1.50
2022-12-05T07:59:17.129Z,1.50
2022-12-05T08:04:20.647Z,1.67
2022-12-05T08:09:25.901Z,1.37
2022-12-05T08:14:29.627Z,1.60
2022-12-05T08:19:33.169Z,1.53
2022-12-05T08:24:38.294Z,1.67
2022-12-05T08:29:41.843Z,1.70
2022-12-05T08:34:45.450Z,6.93
2022-12-05T08:39:50.889Z,5.43
2022-12-05T08:44:54.419Z,2.90
2022-12-05T08:49:58.233Z,2.80
2022-12-05T08:55:03.343Z,2.00
2022-12-05T09:00:08.410Z,1.60
2022-12-05T09:05:26.783Z,1.60
2022-12-05T09:10:33.791Z,1.77
2022-12-05T09:15:40.043Z,1.40
2022-12-05T09:20:43.659Z,1.67
2022-12-05T09:25:56.098Z,1.63
2022-12-05T09:31:01.385Z,1.60
2022-12-05T09:36:06.781Z,1.50
2022-12-05T09:41:44.525Z,1.90
2022-12-05T09:46:56.650Z,1.87
2022-12-05T09:52:01.998Z,1.90
2022-12-05T09:57:07.573Z,1.67
2022-12-05T10:02:25.186Z,1.47
2022-12-05T10:07:33.576Z,1.57
2022-12-05T10:12:53.883Z,2.80
2022-12-05T10:18:01.559Z,2.60
2022-12-05T10:23:23.191Z,1.83
2022-12-05T10:28:40.917Z,1.70
2022-12-05T10:33:49.575Z,2.13
2022-12-05T10:38:53.662Z,1.97
2022-12-05T10:44:00.514Z,2.10
2022-12-05T10:49:07.087Z,2.97
2022-12-05T10:54:19.117Z,3.77
2022-12-05T10:59:26.315Z,3.53
2022-12-05T11:04:32.784Z,2.27
2022-12-05T11:09:38.826Z,2.30
2022-12-05T11:14:56.448Z,2.03
2022-12-05T11:20:00.470Z,2.20
2022-12-05T11:25:26.565Z,2.00
2022-12-05T11:30:31.483Z,2.10
2022-12-05T11:35:35.111Z,2.30
2022-12-05T11:40:45.899Z,2.30
2022-12-05T11:46:05.391Z,2.10
2022-12-05T11:51:25.897Z,2.27
2022-12-05T11:56:38.353Z,2.17
2022-12-05T12:01:52.839Z,2.17
2022-12-05T12:07:10.266Z,2.20
2022-12-05T12:12:20.787Z,2.00
2022-12-05T12:17:34.205Z,2.50
2022-12-05T12:22:52.373Z,2.00
2022-12-05T12:28:07.745Z,2.13
2022-12-05T12:33:20.447Z,2.37
2022-12-05T12:38:56.440Z,2.30
2022-12-05T12:44:22.452Z,2.00
2022-12-05T12:49:43.192Z,2.03
2022-12-05T12:55:05.788Z,2.03
2022-12-05T13:00:21.373Z,2.03
2022-12-05T13:05:34.181Z,2.77
2022-12-05T13:10:40.987Z,2.83
2022-12-05T13:15:48.543Z,2.63
2022-12-05T13:20:57.213Z,3.30
2022-12-05T13:26:02.715Z,2.80
2022-12-05T13:31:06.447Z,2.30
2022-12-05T13:36:31.519Z,2.00
2022-12-05T13:42:00.393Z,2.10
2022-12-05T13:47:07.313Z,1.90
2022-12-05T13:52:18.596Z,2.37
2022-12-05T13:57:50.996Z,1.73
2022-12-05T14:02:56.985Z,1.73
2022-12-05T14:08:22.023Z,1.77
2022-12-05T14:13:43.530Z,1.77
2022-12-05T14:18:53.415Z,2.10
2022-12-05T14:24:08.925Z,1.97
2022-12-05T14:29:35.489Z,1.60
2022-12-05T14:34:49.659Z,1.80
2022-12-05T14:39:57.537Z,2.07
2022-12-05T14:45:05.104Z,1.80
2022-12-05T14:50:41.371Z,1.50
2022-12-05T14:55:47.446Z,1.43
2022-12-05T15:00:58.077Z,1.57
2022-12-05T15:06:07.382Z,1.47
2022-12-05T15:11:28.086Z,1.30
2022-12-05T15:16:34.362Z,1.50
2022-12-05T15:21:43.391Z,1.50
2022-12-05T15:26:50.261Z,1.43
2022-12-05T15:31:56.866Z,1.40
2022-12-05T15:37:06.171Z,1.50
2022-12-05T15:42:16.920Z,1.33
2022-12-05T15:47:22.662Z,1.40
2022-12-05T15:52:31.783Z,1.63
2022-12-05T15:57:42.185Z,1.80
2022-12-05T16:02:51.843Z,1.50
2022-12-05T16:07:55.941Z,1.50
2022-12-05T16:13:07.347Z,1.30
2022-12-05T16:18:27.450Z,1.60
2022-12-05T16:23:33.547Z,1.57
2022-12-05T16:28:39.057Z,1.30
2022-12-05T16:33:44.034Z,1.30
2022-12-05T16:38:49.834Z,1.50
2022-12-05T16:43:54.751Z,1.30
2022-12-05T16:49:18.271Z,1.07
2022-12-05T16:54:21.872Z,1.30
2022-12-05T16:59:32.775Z,1.10
2022-12-05T17:04:36.428Z,1.03
2022-12-05T17:09:40.056Z,1.20
2022-12-05T17:14:47.159Z,1.20
2022-12-05T17:19:50.754Z,1.10
2022-12-05T17:24:54.674Z,0.90
2022-12-05T17:30:00.419Z,1.20
2022-12-05T17:35:13.124Z,1.10
2022-12-05T17:40:17.754Z,0.90
2022-12-05T17:45:23.029Z,1.00
2022-12-05T17:50:27.840Z,1.10
2022-12-05T17:55:31.610Z,1.17
2022-12-05T18:00:36.731Z,1.00
2022-12-05T18:05:40.363Z,1.03
2022-12-05T18:10:45.663Z,1.10
2022-12-05T18:15:50.611Z,0.93
2022-12-05T18:20:54.384Z,1.17
2022-12-05T18:26:01.388Z,1.07
2022-12-05T18:31:08.009Z,1.10
2022-12-05T18:36:17.185Z,0.93
2022-12-05T18:41:23.192Z,0.80
2022-12-05T18:46:28.161Z,1.07
2022-12-05T18:51:32.403Z,1.13
2022-12-05T18:56:37.551Z,1.00
2022-12-05T19:01:43.066Z,1.10
2022-12-05T19:06:49.722Z,1.00
2022-12-05T19:11:56.893Z,1.13
2022-12-05T19:17:02.075Z,0.90
2022-12-05T19:22:06.304Z,0.90
2022-12-05T19:27:09.912Z,1.00
2022-12-05T19:32:15.018Z,0.90
2022-12-05T19:37:18.598Z,0.87
2022-12-05T19:42:22.155Z,1.10
2022-12-05T19:47:27.030Z,0.90
2022-12-05T19:52:30.591Z,1.20
2022-12-05T19:57:36.808Z,1.20
2022-12-05T20:02:43.788Z,1.00
2022-12-05T20:07:49.212Z,1.17
2022-12-05T20:12:52.865Z,0.97
2022-12-05T20:17:57.825Z,0.80
2022-12-05T20:23:01.372Z,1.10
2022-12-05T20:28:05.786Z,1.30
2022-12-05T20:33:10.799Z,1.10
2022-12-05T20:38:14.435Z,1.00
2022-12-05T20:43:18.127Z,1.13
2022-12-05T20:48:25.972Z,1.00
2022-12-05T20:53:29.531Z,0.90
2022-12-05T20:58:33.734Z,0.90
2022-12-05T21:03:42.127Z,0.80
2022-12-05T21:08:45.983Z,0.80
2022-12-05T21:13:50.106Z,0.80
2022-12-05T21:18:56.002Z,0.80
2022-12-05T21:24:01.251Z,0.83
2022-12-05T21:29:07.274Z,0.97
2022-12-05T21:34:15.854Z,1.07
2022-12-05T21:39:19.360Z,0.67
2022-12-05T21:44:23.143Z,0.90
2022-12-05T21:49:28.432Z,0.87
2022-12-05T21:54:31.960Z,1.00
2022-12-05T21:59:35.486Z,1.00
2022-12-05T22:04:40.457Z,0.80
2022-12-05T22:09:44.002Z,0.77
2022-12-05T22:14:47.624Z,0.83
2022-12-05T22:19:52.450Z,0.93
2022-12-05T22:24:56.178Z,0.83
2022-12-05T22:30:00.075Z,1.00
2022-12-05T22:35:05.702Z,0.63
2022-12-05T22:40:10.595Z,0.77
2022-12-05T22:45:14.100Z,0.90
2022-12-05T22:50:19.072Z,0.90
2022-12-05T22:55:22.805Z,0.60
2022-12-05T23:00:26.347Z,0.80
2022-12-05T23:05:32.036Z,1.00
2022-12-05T23:10:37.622Z,0.97
2022-12-05T23:15:42.083Z,0.90
2022-12-05T23:20:46.997Z,0.70
2022-12-05T23:25:51.048Z,0.90
2022-12-05T23:30:54.593Z,0.93
2022-12-05T23:35:59.558Z,0.90
2022-12-05T23:41:04.938Z,0.80
2022-12-05T23:46:09.406Z,1.00
2022-12-05T23:51:16.851Z,1.10
2022-12-05T23:56:23.295Z,1.00
